createdAt,value
2023-01-17T00:00:09.494Z,977.99
2023-01-17T00:01:09.513Z,978.08
2023-01-17T00:04:09.914Z,978.16
2023-01-17T00:05:09.591Z,978.16
2023-01-17T00:06:09.637Z,978.21
2023-01-17T00:08:09.659Z,978.24
2023-01-17T00:09:09.683Z,978.19
2023-01-17T00:10:09.704Z,978.19
2023-01-17T00:11:09.725Z,978.18
2023-01-17T00:12:09.747Z,978.17
2023-01-17T00:13:09.770Z,978.21
2023-01-17T00:14:09.795Z,978.34
2023-01-17T00:15:09.814Z,978.19
2023-01-17T00:16:09.881Z,978.24
2023-01-17T00:17:09.860Z,978.19
2023-01-17T00:18:09.882Z,978.29
2023-01-17T00:19:09.903Z,978.17
2023-01-17T00:20:09.928Z,978.20
2023-01-17T00:21:09.948Z,978.18
2023-01-17T00:22:09.993Z,978.23
2023-01-17T00:23:09.994Z,978.24
2023-01-17T00:25:10.044Z,978.27
2023-01-17T00:26:10.061Z,978.29
2023-01-17T00:27:10.118Z,978.28
2023-01-17T00:29:10.137Z,978.21
2023-01-17T00:30:10.153Z,978.30
2023-01-17T00:31:10.230Z,978.26
2023-01-17T00:32:10.194Z,978.30
2023-01-17T00:33:10.214Z,978.28
2023-01-17T00:34:10.239Z,978.37
2023-01-17T00:35:10.467Z,978.36
2023-01-17T00:36:10.284Z,978.39
2023-01-17T00:37:10.303Z,978.39
2023-01-17T00:40:10.409Z,978.48
2023-01-17T00:44:10.669Z,978.49
2023-01-17T00:45:10.687Z,978.58
2023-01-17T00:47:11.941Z,978.58
2023-01-17T00:49:10.581Z,978.62
2023-01-17T00:50:10.597Z,978.61
2023-01-17T00:51:10.621Z,978.67
2023-01-17T00:52:10.638Z,978.63
2023-01-17T00:53:10.666Z,978.74
2023-01-17T00:54:10.684Z,978.67
2023-01-17T00:55:10.707Z,978.75
2023-01-17T00:56:10.750Z,978.80
2023-01-17T00:57:10.749Z,978.92
2023-01-17T00:58:10.772Z,978.85
2023-01-17T00:59:10.794Z,978.76
2023-01-17T01:00:10.828Z,978.73
2023-01-17T01:01:10.958Z,978.84
2023-01-17T01:02:11.077Z,978.85
2023-01-17T01:03:10.882Z,978.91
2023-01-17T01:04:10.901Z,978.92
2023-01-17T01:05:10.927Z,978.93
2023-01-17T01:06:10.948Z,978.92
2023-01-17T01:07:10.972Z,978.92
2023-01-17T01:08:10.995Z,979.02
2023-01-17T01:09:11.172Z,979.09
2023-01-17T01:10:11.036Z,979.05
2023-01-17T01:11:11.061Z,979.06
2023-01-17T01:12:11.107Z,979.17
2023-01-17T01:13:11.107Z,979.16
2023-01-17T01:14:11.131Z,979.18
2023-01-17T01:15:11.148Z,979.18
2023-01-17T01:16:11.237Z,979.12
2023-01-17T01:17:11.195Z,979.30
2023-01-17T01:18:11.220Z,979.28
2023-01-17T01:19:11.239Z,979.16
2023-01-17T01:20:11.260Z,979.22
2023-01-17T01:21:11.280Z,979.25
2023-01-17T01:22:11.310Z,979.26
2023-01-17T01:23:11.325Z,979.19
2023-01-17T01:24:11.347Z,979.24
2023-01-17T01:25:11.376Z,979.25
2023-01-17T01:26:11.392Z,979.28
2023-01-17T01:27:11.420Z,979.24
2023-01-17T01:28:11.462Z,979.29
2023-01-17T01:29:11.459Z,979.35
2023-01-17T01:30:11.482Z,979.37
2023-01-17T01:31:11.571Z,979.32
2023-01-17T01:32:11.529Z,979.36
2023-01-17T01:33:11.564Z,979.35
2023-01-17T01:34:11.569Z,979.45
2023-01-17T01:35:11.595Z,979.52
2023-01-17T01:36:11.613Z,979.43
2023-01-17T01:37:11.637Z,979.49
2023-01-17T01:38:11.658Z,979.50
2023-01-17T01:39:11.682Z,979.47
2023-01-17T01:40:11.703Z,979.44
2023-01-17T01:41:11.725Z,979.48
2023-01-17T01:42:11.746Z,979.52
2023-01-17T01:43:11.771Z,979.53
2023-01-17T01:44:11.814Z,979.63
2023-01-17T01:45:11.835Z,979.63
2023-01-17T01:46:11.833Z,979.61
2023-01-17T01:47:11.867Z,979.64
2023-01-17T01:48:11.882Z,979.65
2023-01-17T01:49:11.921Z,979.67
2023-01-17T01:50:11.923Z,979.72
2023-01-17T01:51:11.956Z,979.74
2023-01-17T01:52:11.972Z,979.72
2023-01-17T01:53:11.989Z,979.71
2023-01-17T01:54:12.009Z,979.78
2023-01-17T01:55:12.032Z,979.74
2023-01-17T01:56:12.056Z,979.75
2023-01-17T01:57:12.083Z,979.79
2023-01-17T01:58:12.098Z,979.77
2023-01-17T01:59:12.124Z,979.81
2023-01-17T02:00:12.165Z,979.83
2023-01-17T02:01:12.239Z,979.92
2023-01-17T02:02:12.191Z,979.82
2023-01-17T02:03:12.211Z,979.91
2023-01-17T02:04:12.280Z,979.88
2023-01-17T02:05:12.255Z,979.97
2023-01-17T02:06:12.277Z,979.95
2023-01-17T02:07:12.300Z,979.89
2023-01-17T02:08:12.325Z,979.97
2023-01-17T02:09:12.395Z,979.98
2023-01-17T02:10:12.364Z,980.01
2023-01-17T02:11:12.392Z,980.01
2023-01-17T02:12:12.420Z,980.05
2023-01-17T02:13:12.431Z,980.10
2023-01-17T02:14:12.452Z,980.12
2023-01-17T02:15:12.477Z,980.19
2023-01-17T02:16:12.560Z,980.10
2023-01-17T02:17:12.539Z,980.16
2023-01-17T02:18:12.541Z,980.18
2023-01-17T02:19:12.565Z,980.18
2023-01-17T02:20:12.602Z,980.21
2023-01-17T02:21:12.611Z,980.24
2023-01-17T02:22:12.629Z,980.22
2023-01-17T02:23:12.656Z,980.25
2023-01-17T02:24:12.679Z,980.36
2023-01-17T02:25:12.713Z,980.34
2023-01-17T02:26:12.737Z,980.36
2023-01-17T02:27:12.759Z,980.38
2023-01-17T02:28:13.067Z,980.38
2023-01-17T02:29:12.784Z,980.43
2023-01-17T02:30:12.910Z,980.41
2023-01-17T02:31:12.828Z,980.48
2023-01-17T02:32:12.874Z,980.44
2023-01-17T02:33:12.881Z,980.50
2023-01-17T02:34:12.895Z,980.39
2023-01-17T02:35:12.924Z,980.46
2023-01-17T02:36:12.940Z,980.47
2023-01-17T02:37:12.964Z,980.60
2023-01-17T02:38:12.989Z,980.50
2023-01-17T02:39:13.006Z,980.53
2023-01-17T02:40:13.030Z,980.49
2023-01-17T02:41:13.050Z,980.57
2023-01-17T02:42:13.072Z,980.55
2023-01-17T02:43:13.094Z,980.61
2023-01-17T02:44:13.120Z,980.52
2023-01-17T02:45:13.139Z,980.63
2023-01-17T02:46:13.240Z,980.59
2023-01-17T02:47:13.183Z,980.52
2023-01-17T02:48:13.227Z,980.62
2023-01-17T02:49:13.228Z,980.64
2023-01-17T02:50:13.248Z,980.65
2023-01-17T02:51:13.269Z,980.55
2023-01-17T02:52:13.295Z,980.63
2023-01-17T02:53:13.317Z,980.60
2023-01-17T02:54:13.336Z,980.61
2023-01-17T02:55:13.359Z,980.56
2023-01-17T02:56:13.383Z,980.63
2023-01-17T02:57:13.405Z,980.70
2023-01-17T02:58:13.427Z,980.75
2023-01-17T02:59:13.451Z,980.75
2023-01-17T03:00:13.468Z,980.75
2023-01-17T03:01:13.611Z,980.75
2023-01-17T03:02:13.676Z,980.75
2023-01-17T03:03:13.540Z,980.71
2023-01-17T03:04:13.575Z,980.74
2023-01-17T03:05:13.582Z,980.73
2023-01-17T03:06:13.601Z,980.81
2023-01-17T03:07:13.625Z,980.82
2023-01-17T03:08:13.643Z,980.77
2023-01-17T03:09:13.668Z,980.84
2023-01-17T03:10:13.701Z,980.87
2023-01-17T03:11:13.716Z,980.78
2023-01-17T03:12:13.732Z,980.79
2023-01-17T03:13:13.756Z,980.77
2023-01-17T03:14:13.782Z,980.81
2023-01-17T03:15:13.803Z,980.78
2023-01-17T03:16:13.871Z,980.79
2023-01-17T03:17:13.846Z,980.82
2023-01-17T03:18:13.870Z,980.89
2023-01-17T03:19:13.888Z,980.88
2023-01-17T03:20:13.931Z,980.90
2023-01-17T03:21:13.933Z,980.89
2023-01-17T03:22:13.951Z,980.84
2023-01-17T03:23:13.978Z,980.89
2023-01-17T03:24:13.996Z,980.91
2023-01-17T03:25:14.020Z,980.86
2023-01-17T03:26:14.040Z,980.90
2023-01-17T03:27:14.065Z,980.86
2023-01-17T03:28:14.083Z,980.94
2023-01-17T03:29:14.107Z,980.97
2023-01-17T03:30:14.141Z,980.98
2023-01-17T03:31:14.151Z,980.96
2023-01-17T03:32:14.173Z,980.97
2023-01-17T03:33:14.200Z,981.02
2023-01-17T03:34:14.218Z,981.09
2023-01-17T03:35:14.237Z,981.04
2023-01-17T03:36:14.288Z,981.07
2023-01-17T03:37:14.282Z,981.08
2023-01-17T03:38:14.305Z,981.02
2023-01-17T03:39:14.328Z,981.07
2023-01-17T03:40:14.355Z,981.06
2023-01-17T03:41:14.373Z,981.04
2023-01-17T03:42:14.394Z,981.03
2023-01-17T03:43:14.420Z,981.14
2023-01-17T03:44:14.436Z,981.11
2023-01-17T03:45:14.461Z,981.13
2023-01-17T03:46:14.480Z,981.05
2023-01-17T03:47:14.513Z,981.08
2023-01-17T03:48:14.524Z,981.12
2023-01-17T03:49:14.547Z,981.11
2023-01-17T03:50:14.567Z,981.13
2023-01-17T03:51:14.595Z,981.14
2023-01-17T03:52:14.639Z,981.27
2023-01-17T03:53:14.635Z,981.23
2023-01-17T03:54:14.661Z,981.11
2023-01-17T03:55:14.679Z,981.24
2023-01-17T03:56:14.703Z,981.22
2023-01-17T03:57:14.723Z,981.23
2023-01-17T03:58:14.758Z,981.31
2023-01-17T03:59:14.768Z,981.24
2023-01-17T04:00:14.793Z,981.28
2023-01-17T04:01:14.901Z,981.29
2023-01-17T04:02:14.932Z,981.31
2023-01-17T04:03:14.855Z,981.32
2023-01-17T04:04:14.877Z,981.41
2023-01-17T04:05:14.927Z,981.30
2023-01-17T04:06:14.921Z,981.38
2023-01-17T04:07:14.941Z,981.38
2023-01-17T04:08:14.982Z,981.41
2023-01-17T04:09:15.002Z,981.46
2023-01-17T04:10:15.008Z,981.41
2023-01-17T04:11:15.039Z,981.38
2023-01-17T04:12:15.052Z,981.44
2023-01-17T04:13:15.075Z,981.38
2023-01-17T04:14:15.094Z,981.40
2023-01-17T04:15:15.119Z,981.46
2023-01-17T04:16:15.159Z,981.43
2023-01-17T04:17:15.160Z,981.49
2023-01-17T04:18:15.186Z,981.43
2023-01-17T04:19:15.204Z,981.37
2023-01-17T04:20:15.227Z,981.39
2023-01-17T04:21:15.247Z,981.38
2023-01-17T04:22:15.282Z,981.40
2023-01-17T04:23:15.296Z,981.36
2023-01-17T04:24:17.765Z,981.40
2023-01-17T04:25:15.334Z,981.39
2023-01-17T04:26:15.358Z,981.36
2023-01-17T04:27:15.379Z,981.38
2023-01-17T04:28:15.402Z,981.36
2023-01-17T04:29:15.423Z,981.38
2023-01-17T04:30:15.447Z,981.40
2023-01-17T04:31:15.644Z,981.34
2023-01-17T04:32:15.489Z,981.36
2023-01-17T04:33:15.510Z,981.30
2023-01-17T04:34:15.545Z,981.40
2023-01-17T04:35:15.558Z,981.37
2023-01-17T04:36:15.578Z,981.36
2023-01-17T04:37:15.598Z,981.32
2023-01-17T04:38:15.622Z,981.31
2023-01-17T04:39:15.642Z,981.33
2023-01-17T04:40:15.697Z,981.32
2023-01-17T04:41:15.685Z,981.36
2023-01-17T04:42:15.709Z,981.38
2023-01-17T04:43:15.729Z,981.32
2023-01-17T04:44:15.752Z,981.36
2023-01-17T04:45:15.769Z,981.33
2023-01-17T04:46:15.849Z,981.38
2023-01-17T04:47:15.817Z,981.32
2023-01-17T04:48:15.839Z,981.36
2023-01-17T04:49:15.861Z,981.35
2023-01-17T04:50:15.883Z,981.35
2023-01-17T04:51:15.903Z,981.38
2023-01-17T04:52:15.927Z,981.40
2023-01-17T04:53:15.944Z,981.39
2023-01-17T04:54:15.971Z,981.42
2023-01-17T04:55:15.999Z,981.48
2023-01-17T04:56:16.037Z,981.44
2023-01-17T04:57:16.034Z,981.41
2023-01-17T04:58:16.057Z,981.46
2023-01-17T04:59:16.078Z,981.46
2023-01-17T05:00:16.100Z,981.43
2023-01-17T05:01:16.196Z,981.49
2023-01-17T05:02:16.143Z,981.48
2023-01-17T05:03:16.164Z,981.50
2023-01-17T05:04:16.187Z,981.50
2023-01-17T05:05:16.207Z,981.49
2023-01-17T05:06:16.242Z,981.49
2023-01-17T05:07:16.258Z,981.54
2023-01-17T05:08:16.292Z,981.48
2023-01-17T05:09:16.301Z,981.53
2023-01-17T05:10:16.318Z,981.57
2023-01-17T05:11:16.339Z,981.55
2023-01-17T05:12:16.406Z,981.53
2023-01-17T05:13:16.383Z,981.54
2023-01-17T05:14:16.405Z,981.54
2023-01-17T05:15:16.426Z,981.55
2023-01-17T05:16:16.447Z,981.54
2023-01-17T05:17:16.469Z,981.55
2023-01-17T05:18:16.501Z,981.53
2023-01-17T05:19:16.513Z,981.52
2023-01-17T05:20:16.538Z,981.53
2023-01-17T05:21:16.556Z,981.46
2023-01-17T05:22:16.611Z,981.47
2023-01-17T05:23:16.605Z,981.51
2023-01-17T05:24:16.623Z,981.51
2023-01-17T05:25:16.642Z,981.58
2023-01-17T05:26:16.667Z,981.57
2023-01-17T05:27:16.691Z,981.61
2023-01-17T05:28:16.734Z,981.64
2023-01-17T05:29:16.736Z,981.63
2023-01-17T05:30:16.763Z,981.62
2023-01-17T05:31:16.814Z,981.61
2023-01-17T05:32:16.802Z,981.63
2023-01-17T05:33:16.820Z,981.68
2023-01-17T05:34:16.946Z,981.69
2023-01-17T05:35:16.877Z,981.69
2023-01-17T05:36:16.886Z,981.69
2023-01-17T05:37:16.906Z,981.70
2023-01-17T05:38:16.942Z,981.74
2023-01-17T05:39:16.952Z,981.72
2023-01-17T05:40:16.980Z,981.75
2023-01-17T05:41:16.994Z,981.73
2023-01-17T05:42:17.019Z,981.75
2023-01-17T05:43:17.041Z,981.73
2023-01-17T05:44:17.087Z,981.76
2023-01-17T05:45:17.127Z,981.79
2023-01-17T05:46:17.175Z,981.78
2023-01-17T05:47:17.128Z,981.81
2023-01-17T05:48:17.160Z,981.77
2023-01-17T05:49:17.171Z,981.77
2023-01-17T05:50:17.197Z,981.83
2023-01-17T05:51:17.217Z,981.82
2023-01-17T05:52:17.251Z,981.82
2023-01-17T05:53:17.280Z,981.84
2023-01-17T05:54:17.284Z,981.83
2023-01-17T05:55:17.308Z,981.82
2023-01-17T05:56:17.327Z,981.85
2023-01-17T05:57:17.349Z,981.80
2023-01-17T05:58:17.374Z,981.84
2023-01-17T05:59:28.584Z,981.79
2023-01-17T06:00:17.449Z,981.81
2023-01-17T06:01:17.448Z,981.83
2023-01-17T06:02:17.496Z,981.86
2023-01-17T06:03:17.479Z,981.85
2023-01-17T06:04:17.549Z,981.84
2023-01-17T06:05:17.529Z,981.84
2023-01-17T06:06:17.549Z,981.84
2023-01-17T06:07:17.569Z,981.80
2023-01-17T06:08:17.595Z,981.83
2023-01-17T06:09:17.613Z,981.81
2023-01-17T06:10:17.653Z,981.79
2023-01-17T06:11:17.657Z,981.86
2023-01-17T06:12:17.680Z,981.81
2023-01-17T06:13:17.703Z,981.82
2023-01-17T06:14:17.725Z,981.77
2023-01-17T06:15:17.769Z,981.84
2023-01-17T06:16:17.849Z,981.81
2023-01-17T06:17:17.789Z,981.82
2023-01-17T06:18:17.814Z,981.83
2023-01-17T06:19:17.834Z,981.82
2023-01-17T06:20:17.858Z,981.83
2023-01-17T06:21:17.875Z,981.87
2023-01-17T06:22:17.898Z,981.89
2023-01-17T06:23:17.919Z,981.86
2023-01-17T06:24:17.945Z,981.84
2023-01-17T06:25:17.964Z,981.82
2023-01-17T06:26:17.988Z,981.84
2023-01-17T06:27:18.006Z,981.92
2023-01-17T06:28:18.032Z,981.92
2023-01-17T06:29:18.051Z,981.93
2023-01-17T06:30:18.075Z,981.89
2023-01-17T06:31:18.169Z,981.90
2023-01-17T06:32:18.135Z,981.94
2023-01-17T06:33:18.136Z,981.91
2023-01-17T06:34:18.312Z,981.94
2023-01-17T06:35:18.183Z,981.91
2023-01-17T06:36:18.204Z,981.90
2023-01-17T06:37:18.225Z,981.98
2023-01-17T06:38:18.259Z,982.00
2023-01-17T06:39:18.272Z,982.01
2023-01-17T06:40:18.291Z,981.97
2023-01-17T06:41:18.310Z,981.94
2023-01-17T06:42:18.340Z,982.00
2023-01-17T06:43:18.355Z,981.99
2023-01-17T06:44:18.376Z,981.98
2023-01-17T06:45:18.400Z,982.05
2023-01-17T06:46:18.520Z,982.06
2023-01-17T06:47:18.439Z,982.05
2023-01-17T06:48:18.484Z,982.06
2023-01-17T06:49:18.481Z,982.09
2023-01-17T06:50:18.506Z,982.07
2023-01-17T06:51:18.524Z,982.06
2023-01-17T06:52:18.547Z,982.09
2023-01-17T06:53:18.567Z,982.13
2023-01-17T06:54:18.592Z,982.14
2023-01-17T06:55:18.618Z,982.17
2023-01-17T06:56:18.649Z,982.15
2023-01-17T06:57:18.653Z,982.16
2023-01-17T06:58:18.677Z,982.19
2023-01-17T06:59:18.696Z,982.18
2023-01-17T07:00:18.718Z,982.16
2023-01-17T07:01:18.909Z,982.19
2023-01-17T07:02:18.767Z,982.21
2023-01-17T07:03:18.804Z,982.19
2023-01-17T07:04:18.829Z,982.24
2023-01-17T07:05:18.826Z,982.24
2023-01-17T07:06:18.857Z,982.20
2023-01-17T07:07:18.868Z,982.27
2023-01-17T07:08:18.890Z,982.28
2023-01-17T07:09:18.912Z,982.26
2023-01-17T07:10:18.944Z,982.24
2023-01-17T07:11:18.955Z,982.26
2023-01-17T07:12:18.975Z,982.29
2023-01-17T07:13:19.004Z,982.25
2023-01-17T07:14:19.027Z,982.32
2023-01-17T07:15:19.041Z,982.28
2023-01-17T07:16:19.148Z,982.31
2023-01-17T07:17:19.083Z,982.34
2023-01-17T07:18:19.105Z,982.30
2023-01-17T07:19:19.127Z,982.35
2023-01-17T07:20:19.163Z,982.26
2023-01-17T07:21:19.167Z,982.31
2023-01-17T07:22:19.190Z,982.25
2023-01-17T07:23:19.216Z,982.27
2023-01-17T07:24:19.233Z,982.32
2023-01-17T07:25:19.253Z,982.33
2023-01-17T07:26:19.276Z,982.30
2023-01-17T07:27:19.297Z,982.28
2023-01-17T07:28:19.319Z,982.34
2023-01-17T07:29:19.340Z,982.29
2023-01-17T07:30:19.412Z,982.29
2023-01-17T07:31:19.433Z,982.35
2023-01-17T07:32:19.404Z,982.29
2023-01-17T07:33:19.424Z,982.25
2023-01-17T07:34:19.461Z,982.29
2023-01-17T07:35:19.474Z,982.30
2023-01-17T07:36:19.562Z,982.36
2023-01-17T07:37:19.511Z,982.33
2023-01-17T07:38:19.535Z,982.32
2023-01-17T07:39:19.554Z,982.34
2023-01-17T07:40:19.573Z,982.37
2023-01-17T07:41:19.596Z,982.36
2023-01-17T07:42:19.620Z,982.37
2023-01-17T07:43:19.637Z,982.36
2023-01-17T07:44:19.670Z,982.29
2023-01-17T07:45:19.680Z,982.31
2023-01-17T07:46:19.734Z,982.27
2023-01-17T07:47:19.725Z,982.32
2023-01-17T07:48:19.756Z,982.34
2023-01-17T07:49:19.767Z,982.32
2023-01-17T07:50:19.791Z,982.30
2023-01-17T07:51:19.961Z,982.27
2023-01-17T07:52:19.869Z,982.34
2023-01-17T07:53:19.850Z,982.35
2023-01-17T07:54:19.874Z,982.31
2023-01-17T07:55:19.901Z,982.35
2023-01-17T07:56:19.918Z,982.33
2023-01-17T07:57:19.950Z,982.31
2023-01-17T07:58:19.967Z,982.34
2023-01-17T07:59:19.994Z,982.31
2023-01-17T08:00:20.011Z,982.30
2023-01-17T08:01:20.175Z,982.32
2023-01-17T08:02:20.059Z,982.32
2023-01-17T08:03:20.068Z,982.39
2023-01-17T08:04:20.090Z,982.35
2023-01-17T08:05:20.108Z,982.38
2023-01-17T08:06:20.206Z,982.39
2023-01-17T08:07:20.163Z,982.36
2023-01-17T08:08:20.212Z,982.39
2023-01-17T08:09:20.196Z,982.41
2023-01-17T08:10:20.217Z,982.46
2023-01-17T08:11:20.243Z,982.41
2023-01-17T08:12:20.261Z,982.37
2023-01-17T08:13:20.280Z,982.43
2023-01-17T08:14:20.304Z,982.48
2023-01-17T08:15:20.324Z,982.41
2023-01-17T08:16:20.388Z,982.37
2023-01-17T08:17:20.394Z,982.39
2023-01-17T08:18:20.390Z,982.35
2023-01-17T08:19:20.412Z,982.38
2023-01-17T08:20:20.432Z,982.39
2023-01-17T08:21:20.453Z,982.36
2023-01-17T08:22:20.484Z,982.34
2023-01-17T08:23:20.496Z,982.30
2023-01-17T08:24:20.541Z,982.35
2023-01-17T08:25:20.539Z,982.32
2023-01-17T08:26:20.562Z,982.31
2023-01-17T08:27:20.592Z,982.34
2023-01-17T08:28:20.621Z,982.39
2023-01-17T08:29:20.626Z,982.39
2023-01-17T08:30:20.651Z,982.38
2023-01-17T08:31:20.679Z,982.30
2023-01-17T08:32:20.691Z,982.35
2023-01-17T08:33:20.714Z,982.33
2023-01-17T08:34:20.745Z,982.32
2023-01-17T08:35:20.758Z,982.29
2023-01-17T08:36:20.777Z,982.32
2023-01-17T08:37:20.800Z,982.32
2023-01-17T08:38:20.824Z,982.31
2023-01-17T08:39:20.850Z,982.28
2023-01-17T08:40:20.904Z,982.33
2023-01-17T08:41:20.923Z,982.35
2023-01-17T08:42:20.907Z,982.34
2023-01-17T08:43:20.940Z,982.35
2023-01-17T08:44:21.155Z,982.36
2023-01-17T08:45:20.975Z,982.37
2023-01-17T08:46:20.997Z,982.41
2023-01-17T08:47:21.124Z,982.40
2023-01-17T08:48:21.037Z,982.38
2023-01-17T08:49:21.070Z,982.38
2023-01-17T08:50:21.090Z,982.43
2023-01-17T08:51:21.112Z,982.39
2023-01-17T08:52:21.128Z,982.38
2023-01-17T08:53:21.152Z,982.40
2023-01-17T08:54:21.172Z,982.42
2023-01-17T08:55:21.194Z,982.42
2023-01-17T08:56:21.250Z,982.44
2023-01-17T08:57:21.241Z,982.47
2023-01-17T08:58:21.259Z,982.48
2023-01-17T08:59:21.290Z,982.46
2023-01-17T09:00:21.303Z,982.47
2023-01-17T09:01:21.425Z,982.48
2023-01-17T09:02:21.450Z,982.48
2023-01-17T09:03:21.373Z,982.50
2023-01-17T09:04:21.424Z,982.53
2023-01-17T09:05:21.418Z,982.52
2023-01-17T09:06:21.444Z,982.52
2023-01-17T09:07:21.462Z,982.51
2023-01-17T09:08:21.486Z,982.52
2023-01-17T09:09:21.507Z,982.54
2023-01-17T09:10:21.563Z,982.51
2023-01-17T09:11:21.554Z,982.48
2023-01-17T09:12:21.589Z,982.48
2023-01-17T09:13:21.600Z,982.52
2023-01-17T09:14:21.617Z,982.54
2023-01-17T09:15:21.656Z,982.47
2023-01-17T09:16:21.677Z,982.51
2023-01-17T09:17:21.687Z,982.53
2023-01-17T09:18:21.708Z,982.52
2023-01-17T09:19:21.733Z,982.52
2023-01-17T09:20:21.752Z,982.59
2023-01-17T09:21:21.779Z,982.54
2023-01-17T09:22:21.798Z,982.52
2023-01-17T09:23:21.824Z,982.54
2023-01-17T09:24:21.846Z,982.51
2023-01-17T09:25:21.871Z,982.52
2023-01-17T09:26:21.897Z,982.48
2023-01-17T09:27:21.913Z,982.45
2023-01-17T09:28:21.957Z,982.46
2023-01-17T09:29:21.960Z,982.49
2023-01-17T09:30:21.980Z,982.44
2023-01-17T09:31:22.010Z,982.52
2023-01-17T09:32:22.059Z,982.42
2023-01-17T09:33:22.055Z,982.44
2023-01-17T09:34:22.074Z,982.42
2023-01-17T09:35:22.106Z,982.45
2023-01-17T09:36:22.156Z,982.44
2023-01-17T09:37:22.146Z,982.48
2023-01-17T09:38:22.166Z,982.49
2023-01-17T09:39:22.193Z,982.53
2023-01-17T09:40:22.213Z,982.57
2023-01-17T09:41:22.244Z,982.58
2023-01-17T09:42:22.268Z,982.56
2023-01-17T09:43:22.283Z,982.60
2023-01-17T09:44:22.329Z,982.56
2023-01-17T09:45:22.332Z,982.63
2023-01-17T09:46:22.455Z,982.59
2023-01-17T09:47:22.408Z,982.62
2023-01-17T09:48:22.396Z,982.63
2023-01-17T09:49:22.424Z,982.63
2023-01-17T09:50:22.444Z,982.60
2023-01-17T09:51:22.469Z,982.65
2023-01-17T09:52:22.490Z,982.68
2023-01-17T09:53:22.543Z,982.73
2023-01-17T09:54:22.539Z,982.71
2023-01-17T09:55:22.562Z,982.70
2023-01-17T09:56:22.583Z,982.76
2023-01-17T09:57:22.608Z,982.77
2023-01-17T09:58:22.628Z,982.73
2023-01-17T09:59:32.167Z,982.75
2023-01-17T10:00:22.698Z,982.74
2023-01-17T10:01:22.914Z,982.77
2023-01-17T10:02:25.884Z,982.74
2023-01-17T10:03:22.763Z,982.72
2023-01-17T10:04:22.850Z,982.72
2023-01-17T10:05:22.798Z,982.72
2023-01-17T10:06:22.822Z,982.72
2023-01-17T10:07:22.840Z,982.71
2023-01-17T10:08:22.865Z,982.72
2023-01-17T10:09:22.886Z,982.73
2023-01-17T10:10:22.920Z,982.67
2023-01-17T10:11:22.941Z,982.70
2023-01-17T10:12:22.963Z,982.61
2023-01-17T10:13:22.979Z,982.70
2023-01-17T10:14:23.003Z,982.72
2023-01-17T10:15:23.029Z,982.69
2023-01-17T10:16:23.109Z,982.72
2023-01-17T10:17:23.083Z,982.74
2023-01-17T10:18:30.016Z,982.71
2023-01-17T10:19:23.120Z,982.75
2023-01-17T10:20:23.159Z,982.74
2023-01-17T10:21:23.166Z,982.71
2023-01-17T10:22:23.185Z,982.72
2023-01-17T10:23:23.209Z,982.68
2023-01-17T10:24:23.234Z,982.72
2023-01-17T10:25:23.256Z,982.66
2023-01-17T10:26:23.279Z,982.70
2023-01-17T10:27:23.304Z,982.68
2023-01-17T10:28:23.327Z,982.72
2023-01-17T10:29:23.348Z,982.70
2023-01-17T10:30:23.368Z,982.66
2023-01-17T10:31:23.411Z,982.69
2023-01-17T10:32:23.433Z,982.68
2023-01-17T10:33:23.439Z,982.68
2023-01-17T10:34:23.461Z,982.62
2023-01-17T10:35:23.487Z,982.62
2023-01-17T10:36:23.508Z,982.67
2023-01-17T10:37:23.534Z,982.68
2023-01-17T10:38:23.563Z,982.65
2023-01-17T10:39:23.590Z,982.67
2023-01-17T10:40:23.597Z,982.70
2023-01-17T10:41:23.626Z,982.69
2023-01-17T10:42:23.653Z,982.68
2023-01-17T10:43:23.672Z,982.70
2023-01-17T10:44:23.692Z,982.73
2023-01-17T10:45:23.717Z,982.75
2023-01-17T10:46:23.805Z,982.69
2023-01-17T10:47:23.761Z,982.67
2023-01-17T10:48:23.812Z,982.67
2023-01-17T10:49:23.808Z,982.68
2023-01-17T10:50:23.828Z,982.64
2023-01-17T10:51:23.861Z,982.66
2023-01-17T10:52:23.875Z,982.64
2023-01-17T10:53:23.904Z,982.65
2023-01-17T10:54:23.926Z,982.68
2023-01-17T10:55:23.948Z,982.68
2023-01-17T10:56:23.967Z,982.63
2023-01-17T10:57:24.002Z,982.66
2023-01-17T10:58:24.022Z,982.66
2023-01-17T10:59:24.041Z,982.65
2023-01-17T11:00:24.058Z,982.64
2023-01-17T11:01:24.326Z,982.59
2023-01-17T11:02:24.203Z,982.59
2023-01-17T11:03:24.159Z,982.55
2023-01-17T11:04:24.175Z,982.57
2023-01-17T11:05:24.176Z,982.56
2023-01-17T11:06:24.197Z,982.56
2023-01-17T11:07:24.231Z,982.54
2023-01-17T11:08:24.245Z,982.54
2023-01-17T11:09:24.270Z,982.53
2023-01-17T11:10:24.292Z,982.53
2023-01-17T11:11:24.318Z,982.50
2023-01-17T11:12:24.339Z,982.53
2023-01-17T11:13:24.366Z,982.52
2023-01-17T11:14:24.386Z,982.51
2023-01-17T11:15:24.410Z,982.52
2023-01-17T11:16:26.600Z,982.47
2023-01-17T11:17:24.456Z,982.52
2023-01-17T11:18:24.476Z,982.52
2023-01-17T11:19:24.501Z,982.47
2023-01-17T11:20:24.546Z,982.48
2023-01-17T11:21:24.546Z,982.43
2023-01-17T11:22:24.580Z,982.44
2023-01-17T11:23:24.603Z,982.44
2023-01-17T11:24:24.632Z,982.39
2023-01-17T11:25:24.640Z,982.41
2023-01-17T11:26:24.662Z,982.34
2023-01-17T11:27:24.691Z,982.40
2023-01-17T11:28:24.710Z,982.34
2023-01-17T11:29:24.744Z,982.33
2023-01-17T11:30:24.758Z,982.26
2023-01-17T11:31:24.879Z,982.25
2023-01-17T11:32:24.806Z,982.30
2023-01-17T11:33:24.829Z,982.26
2023-01-17T11:34:24.856Z,982.25
2023-01-17T11:35:24.874Z,982.24
2023-01-17T11:36:24.919Z,982.24
2023-01-17T11:37:24.921Z,982.21
2023-01-17T11:38:24.942Z,982.23
2023-01-17T11:39:24.965Z,982.21
2023-01-17T11:40:24.989Z,982.20
2023-01-17T11:41:25.015Z,982.18
2023-01-17T11:42:25.033Z,982.14
2023-01-17T11:43:25.059Z,982.14
2023-01-17T11:44:25.081Z,982.13
2023-01-17T11:45:25.123Z,982.15
2023-01-17T11:46:25.168Z,982.14
2023-01-17T11:47:25.185Z,982.13
2023-01-17T11:48:25.179Z,982.11
2023-01-17T11:49:25.202Z,982.15
2023-01-17T11:50:25.220Z,982.12
2023-01-17T11:51:25.256Z,982.21
2023-01-17T11:52:25.307Z,982.17
2023-01-17T11:53:25.307Z,982.18
2023-01-17T11:54:25.325Z,982.20
2023-01-17T11:55:25.339Z,982.18
2023-01-17T11:56:25.363Z,982.18
2023-01-17T11:57:25.391Z,982.17
2023-01-17T11:58:25.419Z,982.16
2023-01-17T11:59:25.437Z,982.08
2023-01-17T12:00:25.463Z,982.12
2023-01-17T12:01:25.482Z,982.07
2023-01-17T12:02:25.501Z,982.05
2023-01-17T12:03:25.591Z,982.11
2023-01-17T12:04:25.546Z,982.10
2023-01-17T12:05:25.587Z,982.08
2023-01-17T12:06:25.593Z,982.07
2023-01-17T12:07:25.632Z,982.01
2023-01-17T12:08:25.659Z,982.04
2023-01-17T12:09:25.677Z,982.05
2023-01-17T12:10:25.687Z,981.97
2023-01-17T12:11:25.714Z,982.02
2023-01-17T12:12:25.751Z,982.05
2023-01-17T12:13:25.769Z,982.04
2023-01-17T12:14:25.779Z,982.00
2023-01-17T12:15:25.804Z,981.99
2023-01-17T12:16:25.828Z,982.00
2023-01-17T12:17:25.852Z,981.96
2023-01-17T12:18:25.880Z,981.96
2023-01-17T12:19:25.899Z,981.94
2023-01-17T12:20:25.923Z,981.93
2023-01-17T12:21:25.947Z,981.94
2023-01-17T12:22:25.974Z,981.99
2023-01-17T12:23:25.995Z,981.94
2023-01-17T12:24:26.033Z,981.94
2023-01-17T12:25:26.044Z,981.90
2023-01-17T12:26:26.062Z,981.86
2023-01-17T12:27:26.088Z,981.88
2023-01-17T12:28:26.121Z,981.85
2023-01-17T12:29:26.141Z,981.87
2023-01-17T12:30:26.168Z,981.84
2023-01-17T12:31:26.279Z,981.83
2023-01-17T12:32:26.206Z,981.82
2023-01-17T12:33:26.254Z,981.81
2023-01-17T12:34:26.265Z,981.77
2023-01-17T12:35:26.297Z,981.76
2023-01-17T12:36:26.297Z,981.76
2023-01-17T12:37:26.327Z,981.74
2023-01-17T12:38:32.467Z,981.75
2023-01-17T12:39:26.368Z,981.74
2023-01-17T12:40:26.415Z,981.69